Freeport, Illinois
Current Conditions -  °F | °C
As of 8:15 AM on Monday 26 Jan 2015 (Local Time) from KFEP Reporting Station
Overcast Overcast  
Wind Chill:   Ceiling: 6500
Heat Index: 17°   Visibility: 10mi
Dew Point: 13°   Wind: 7mph
Humidity: 84%   Direction: 160°SSE
Pressure: 29.96"   Gusts: NA
Location:  42.3°N, 89.62°W
Report Text: KFEP 261415Z AUTO 16006KT 10SM SCT018 BKN065 OVC090 M08/M11 A2996 RMK AO2 T10851108
Loading
Personal Weather Stations






























Interactive Weather Map New forecast layout! Learn more

10-Day Weather Forecast

Advertisements
Track Severe Weather on mobile